Time;durP1;ratioP1;P1;durP2;ratioP2;P2;SDS_P1;SDS_P2;PMS_P1;PMS_P2;Temp;Humidity;BMP_temperature;BMP_pressure;BME280_temperature;BME280_humidity;BME280_pressure;Samples;Min_cycle;Max_cycle;Signal;HPM_P1;HPM_P2
2023/03/10 00:02:02;;;;;;;82.07;23.97;;;;;;;;;;5017330;28;20291;-66
2023/03/10 00:04:28;;;;;;;80.60;25.23;;;;;;;;;;5027028;28;20276;-66
2023/03/10 00:06:54;;;;;;;84.33;22.77;;;;;;;;;;5027655;28;20349;-66
2023/03/10 00:09:20;;;;;;;97.87;25.27;;;;;;;;;;5011760;28;20497;-66
2023/03/10 00:11:47;;;;;;;92.20;23.77;;;;;;;;;;5013009;28;20107;-66
2023/03/10 00:14:14;;;;;;;88.17;24.37;;;;;;;;;;5012111;28;20303;-66
2023/03/10 00:16:40;;;;;;;76.43;23.37;;;;;;;;;;5013615;28;20054;-66
2023/03/10 00:19:06;;;;;;;83.07;22.73;;;;;;;;;;5008355;28;20080;-66
2023/03/10 00:21:33;;;;;;;91.77;23.30;;;;;;;;;;5012899;28;20346;-66
2023/03/10 00:24:01;;;;;;;84.83;24.87;;;;;;;;;;5011047;28;20944;-65
2023/03/10 00:26:27;;;;;;;85.67;23.63;;;;;;;;;;5022941;28;20285;-65
2023/03/10 00:28:54;;;;;;;81.10;24.63;;;;;;;;;;5025312;28;20844;-66
2023/03/10 00:31:21;;;;;;;79.73;22.37;;;;;;;;;;5007869;28;20297;-66
2023/03/10 00:33:48;;;;;;;73.93;20.73;;;;;;;;;;5007705;28;20288;-66
2023/03/10 00:36:16;;;;;;;113.63;30.30;;;;;;;;;;5084134;27;20312;-65
2023/03/10 00:38:42;;;;;;;84.17;24.87;;;;;;;;;;5023595;28;20695;-66
2023/03/10 00:41:11;;;;;;;76.80;22.37;;;;;;;;;;5010836;28;20311;-66
2023/03/10 00:43:37;;;;;;;74.63;22.73;;;;;;;;;;5027464;28;20299;-65
2023/03/10 00:46:03;;;;;;;76.83;21.73;;;;;;;;;;5094934;28;20771;-65
2023/03/10 00:48:30;;;;;;;70.97;22.50;;;;;;;;;;5027122;28;20700;-66
2023/03/10 00:50:56;;;;;;;86.97;23.37;;;;;;;;;;5027360;28;20314;-66
2023/03/10 00:53:22;;;;;;;67.07;21.17;;;;;;;;;;5027083;28;20045;-66
2023/03/10 00:56:02;;;;;;;88.07;23.67;;;;;;;;;;5022465;28;20404;-66
2023/03/10 00:58:28;;;;;;;59.07;19.40;;;;;;;;;;5020211;28;20839;-67
2023/03/10 01:00:54;;;;;;;69.27;20.87;;;;;;;;;;5012776;28;20371;-67
2023/03/10 01:03:21;;;;;;;57.93;19.40;;;;;;;;;;5010132;28;20049;-66
2023/03/10 01:05:47;;;;;;;59.00;19.10;;;;;;;;;;5006197;28;20376;-67
2023/03/10 01:08:13;;;;;;;88.93;21.70;;;;;;;;;;5010418;28;20073;-66
2023/03/10 01:10:39;;;;;;;40.27;15.33;;;;;;;;;;5006608;28;20324;-66
2023/03/10 01:13:05;;;;;;;68.97;19.27;;;;;;;;;;5007060;28;20046;-66
2023/03/10 01:15:31;;;;;;;61.50;19.47;;;;;;;;;;5010444;28;20393;-66
2023/03/10 01:18:01;;;;;;;53.87;17.33;;;;;;;;;;5012892;28;20053;-66
2023/03/10 01:20:27;;;;;;;56.07;16.17;;;;;;;;;;5012361;28;20088;-66
2023/03/10 01:22:53;;;;;;;72.50;19.67;;;;;;;;;;5012268;28;20641;-66
2023/03/10 01:25:19;;;;;;;55.80;17.27;;;;;;;;;;5007105;28;20356;-66
2023/03/10 01:27:45;;;;;;;55.53;16.60;;;;;;;;;;5026413;28;20363;-66
2023/03/10 01:30:11;;;;;;;68.57;17.50;;;;;;;;;;5018504;28;20050;-66
2023/03/10 01:32:37;;;;;;;60.57;18.97;;;;;;;;;;5006919;28;20346;-66
2023/03/10 01:35:04;;;;;;;74.30;19.90;;;;;;;;;;5007001;28;20045;-66
2023/03/10 01:37:30;;;;;;;49.03;15.43;;;;;;;;;;5006849;28;20042;-66
2023/03/10 01:39:56;;;;;;;67.60;18.83;;;;;;;;;;5026622;28;20324;-66
2023/03/10 01:42:22;;;;;;;70.80;18.93;;;;;;;;;;5026416;28;20729;-66
2023/03/10 01:45:08;;;;;;;61.13;18.57;;;;;;;;;;5026404;28;20081;-65
2023/03/10 01:47:34;;;;;;;66.13;18.53;;;;;;;;;;5015131;28;20285;-66
2023/03/10 01:50:01;;;;;;;59.77;17.73;;;;;;;;;;5006366;28;20776;-66
2023/03/10 01:52:30;;;;;;;68.23;18.27;;;;;;;;;;5074256;28;20319;-66
2023/03/10 01:55:06;;;;;;;85.50;19.93;;;;;;;;;;5006125;28;20285;-66
2023/03/10 01:57:35;;;;;;;68.33;19.27;;;;;;;;;;5006206;28;20045;-66
2023/03/10 02:00:02;;;;;;;78.70;20.70;;;;;;;;;;5006481;28;20350;-66
2023/03/10 02:02:31;;;;;;;78.70;20.27;;;;;;;;;;5073783;28;20289;-66
2023/03/10 02:04:57;;;;;;;74.43;19.40;;;;;;;;;;5019826;28;20312;-66
2023/03/10 02:07:26;;;;;;;69.43;20.17;;;;;;;;;;5025879;28;20284;-66
2023/03/10 02:09:52;;;;;;;84.23;22.37;;;;;;;;;;5025200;28;20984;-66
2023/03/10 02:12:18;;;;;;;107.27;26.30;;;;;;;;;;5026242;28;20640;-66
2023/03/10 02:14:46;;;;;;;78.30;22.03;;;;;;;;;;5019060;28;20277;-67
2023/03/10 02:17:15;;;;;;;75.53;21.13;;;;;;;;;;5006015;28;20050;-66
2023/03/10 02:19:48;;;;;;;92.97;24.60;;;;;;;;;;5007331;28;20822;-66
2023/03/10 02:22:16;;;;;;;86.27;23.07;;;;;;;;;;5017207;28;20821;-66
2023/03/10 02:24:57;;;;;;;75.07;22.27;;;;;;;;;;5020148;28;20307;-66
2023/03/10 02:27:29;;;;;;;73.87;22.23;;;;;;;;;;5025349;28;20287;-67
2023/03/10 02:30:12;;;;;;;88.30;22.73;;;;;;;;;;5025212;28;20284;-67
2023/03/10 02:32:43;;;;;;;77.20;21.65;;;;;;;;;;5018871;28;20305;-67
2023/03/10 02:35:09;;;;;;;105.70;25.70;;;;;;;;;;5020102;28;20143;-66
2023/03/10 02:37:36;;;;;;;87.77;21.53;;;;;;;;;;5023110;28;20277;-66
2023/03/10 02:40:03;;;;;;;94.13;24.17;;;;;;;;;;5028838;28;20792;-67
2023/03/10 02:42:32;;;;;;;53.73;18.67;;;;;;;;;;5029125;28;20345;-67
2023/03/10 02:44:58;;;;;;;57.60;19.13;;;;;;;;;;5029051;28;20337;-67
2023/03/10 02:47:24;;;;;;;85.50;23.47;;;;;;;;;;5028960;28;20053;-66
2023/03/10 02:49:50;;;;;;;62.70;18.37;;;;;;;;;;5027629;28;20545;-67
2023/03/10 02:52:25;;;;;;;90.30;22.60;;;;;;;;;;5008908;28;20049;-66
2023/03/10 02:54:51;;;;;;;71.03;20.23;;;;;;;;;;5014008;28;20280;-66
2023/03/10 02:57:17;;;;;;;84.10;21.10;;;;;;;;;;5028775;28;20292;-66
2023/03/10 02:59:43;;;;;;;78.20;22.57;;;;;;;;;;5029106;28;20041;-66
2023/03/10 03:02:09;;;;;;;77.30;21.60;;;;;;;;;;5028540;28;20281;-66
2023/03/10 03:04:35;;;;;;;87.80;21.37;;;;;;;;;;5028773;28;20037;-66
2023/03/10 03:07:01;;;;;;;47.03;16.57;;;;;;;;;;5028907;28;20327;-66
2023/03/10 03:09:27;;;;;;;57.90;18.57;;;;;;;;;;5028491;28;20473;-67
2023/03/10 03:11:53;;;;;;;67.97;20.40;;;;;;;;;;5028022;28;20044;-66
2023/03/10 03:14:19;;;;;;;47.23;16.37;;;;;;;;;;5028485;28;20055;-66
2023/03/10 03:16:46;;;;;;;70.17;19.53;;;;;;;;;;5028135;28;20059;-67
2023/03/10 03:19:12;;;;;;;79.00;19.20;;;;;;;;;;5028937;28;20371;-66
2023/03/10 03:21:38;;;;;;;59.50;17.50;;;;;;;;;;5028333;28;20290;-66
2023/03/10 03:24:04;;;;;;;50.73;16.80;;;;;;;;;;5028581;28;20617;-66
2023/03/10 03:26:30;;;;;;;64.40;18.70;;;;;;;;;;5025677;28;20045;-66
2023/03/10 03:28:56;;;;;;;86.70;23.03;;;;;;;;;;5009648;28;20289;-66
2023/03/10 03:31:24;;;;;;;82.70;21.10;;;;;;;;;;5059746;28;20696;-66
2023/03/10 03:33:50;;;;;;;47.00;16.67;;;;;;;;;;5008384;28;20093;-66
2023/03/10 03:36:17;;;;;;;85.03;22.30;;;;;;;;;;5008553;28;20311;-67
2023/03/10 03:38:43;;;;;;;71.33;19.60;;;;;;;;;;5008219;28;20099;-67
2023/03/10 03:41:09;;;;;;;80.63;20.97;;;;;;;;;;5008284;28;20640;-67
2023/03/10 03:43:35;;;;;;;71.10;20.90;;;;;;;;;;5008502;28;20137;-68
2023/03/10 03:46:03;;;;;;;60.33;18.17;;;;;;;;;;5008563;28;20313;-67
2023/03/10 03:48:29;;;;;;;87.47;20.73;;;;;;;;;;5008240;28;20350;-68
2023/03/10 03:50:55;;;;;;;132.30;26.47;;;;;;;;;;5008566;28;20289;-69
2023/03/10 03:53:21;;;;;;;83.40;24.03;;;;;;;;;;5008011;28;20046;-68
2023/03/10 03:55:49;;;;;;;91.33;22.57;;;;;;;;;;5075932;28;20369;-68
2023/03/10 03:58:15;;;;;;;84.80;22.80;;;;;;;;;;5014561;28;20068;-69
2023/03/10 04:00:41;;;;;;;81.97;24.40;;;;;;;;;;5020407;28;20866;-68
2023/03/10 04:03:07;;;;;;;96.07;24.33;;;;;;;;;;5011120;28;20086;-68
2023/03/10 04:05:33;;;;;;;174.93;34.77;;;;;;;;;;5007494;28;20292;-69
2023/03/10 04:07:59;;;;;;;77.77;21.73;;;;;;;;;;5008022;28;20358;-68
2023/03/10 04:10:28;;;;;;;96.20;24.97;;;;;;;;;;5007927;28;20273;-68
2023/03/10 04:12:54;;;;;;;107.77;27.40;;;;;;;;;;5008427;28;20046;-68
2023/03/10 04:15:20;;;;;;;85.13;24.07;;;;;;;;;;5009042;28;20315;-69
2023/03/10 04:17:46;;;;;;;78.87;22.60;;;;;;;;;;5086917;28;20303;-68
2023/03/10 04:20:13;;;;;;;84.40;23.03;;;;;;;;;;5083138;28;20053;-68
2023/03/10 04:22:39;;;;;;;119.77;27.53;;;;;;;;;;5081154;28;20296;-69
2023/03/10 04:25:06;;;;;;;110.97;26.77;;;;;;;;;;5075483;28;20320;-70
2023/03/10 04:27:32;;;;;;;92.77;22.43;;;;;;;;;;5007620;28;20763;-70
2023/03/10 04:29:58;;;;;;;102.67;24.97;;;;;;;;;;5007523;28;20290;-71
2023/03/10 04:32:24;;;;;;;64.03;19.73;;;;;;;;;;5007523;28;20287;-71
2023/03/10 04:34:50;;;;;;;56.97;20.43;;;;;;;;;;5020559;28;20126;-70
2023/03/10 04:37:16;;;;;;;90.23;23.47;;;;;;;;;;5019115;28;20929;-70
2023/03/10 04:39:42;;;;;;;75.43;23.93;;;;;;;;;;5007356;28;20292;-70
2023/03/10 04:42:09;;;;;;;50.33;17.90;;;;;;;;;;5007215;28;20324;-70
2023/03/10 04:44:35;;;;;;;74.17;20.33;;;;;;;;;;5007502;28;20399;-69
2023/03/10 04:47:01;;;;;;;83.50;22.63;;;;;;;;;;5007373;28;20098;-68
2023/03/10 04:49:28;;;;;;;58.27;17.47;;;;;;;;;;5007369;28;20049;-68
2023/03/10 04:51:54;;;;;;;72.23;20.87;;;;;;;;;;5007429;28;20342;-68
2023/03/10 04:54:20;;;;;;;45.80;17.13;;;;;;;;;;5008159;28;20687;-68
2023/03/10 04:56:46;;;;;;;75.10;20.47;;;;;;;;;;5006570;28;20313;-68
2023/03/10 04:59:12;;;;;;;66.43;18.73;;;;;;;;;;5007309;28;20096;-67
2023/03/10 05:01:38;;;;;;;62.63;17.07;;;;;;;;;;5006429;28;20045;-68
2023/03/10 05:04:05;;;;;;;72.67;19.50;;;;;;;;;;5007226;28;20296;-68
2023/03/10 05:06:31;;;;;;;49.43;15.63;;;;;;;;;;5006845;28;20041;-67
2023/03/10 05:08:57;;;;;;;45.33;15.13;;;;;;;;;;5007214;28;20284;-68
2023/03/10 05:11:23;;;;;;;56.97;17.60;;;;;;;;;;5014499;28;20288;-67
2023/03/10 05:13:49;;;;;;;58.87;16.80;;;;;;;;;;5011231;28;20044;-68
2023/03/10 05:16:17;;;;;;;77.43;18.37;;;;;;;;;;5012891;28;20052;-69
2023/03/10 05:18:43;;;;;;;59.03;16.40;;;;;;;;;;5006326;28;20304;-67
2023/03/10 05:21:09;;;;;;;68.20;16.83;;;;;;;;;;5006863;28;20645;-68
2023/03/10 05:23:35;;;;;;;41.30;12.80;;;;;;;;;;5005806;28;21542;-68
2023/03/10 05:26:05;;;;;;;54.47;16.57;;;;;;;;;;5006620;28;20310;-67
2023/03/10 05:28:31;;;;;;;61.67;16.70;;;;;;;;;;5006012;28;20046;-68
2023/03/10 05:30:57;;;;;;;36.20;13.40;;;;;;;;;;5005537;28;20319;-67
2023/03/10 05:33:23;;;;;;;45.37;14.13;;;;;;;;;;5007848;28;20684;-67
2023/03/10 05:35:49;;;;;;;56.77;16.53;;;;;;;;;;5015016;28;20720;-67
2023/03/10 05:38:15;;;;;;;54.93;15.87;;;;;;;;;;5026671;28;20363;-67
2023/03/10 05:40:43;;;;;;;50.93;14.50;;;;;;;;;;5014432;28;20042;-67
2023/03/10 05:43:09;;;;;;;54.17;15.03;;;;;;;;;;5006400;28;20281;-67
2023/03/10 05:45:35;;;;;;;60.67;16.07;;;;;;;;;;5016881;28;20349;-67
2023/03/10 05:48:01;;;;;;;41.60;14.03;;;;;;;;;;5094336;28;20045;-67
2023/03/10 05:50:27;;;;;;;44.97;14.53;;;;;;;;;;5026286;28;20329;-67
2023/03/10 05:52:53;;;;;;;47.30;14.97;;;;;;;;;;5018631;28;20292;-67
2023/03/10 05:55:19;;;;;;;54.43;15.63;;;;;;;;;;5015610;28;20305;-68
2023/03/10 05:57:45;;;;;;;34.67;11.93;;;;;;;;;;5013803;28;20049;-68
2023/03/10 06:00:12;;;;;;;48.07;14.10;;;;;;;;;;5015071;28;20292;-68
2023/03/10 06:02:38;;;;;;;47.50;14.70;;;;;;;;;;5013457;28;20710;-67
2023/03/10 06:05:05;;;;;;;57.47;16.07;;;;;;;;;;5012344;28;20285;-67
2023/03/10 06:07:32;;;;;;;255.93;46.77;;;;;;;;;;5014745;28;21143;-67
2023/03/10 06:09:58;;;;;;;756.87;120.93;;;;;;;;;;5014192;28;20289;-68
2023/03/10 06:12:24;;;;;;;197.77;34.90;;;;;;;;;;5015773;28;20276;-67
2023/03/10 06:14:50;;;;;;;33.80;12.20;;;;;;;;;;5014608;28;20342;-68
2023/03/10 06:17:16;;;;;;;32.07;13.13;;;;;;;;;;5015669;28;20284;-67
2023/03/10 06:19:42;;;;;;;230.57;31.50;;;;;;;;;;5015841;28;20205;-68
2023/03/10 06:22:08;;;;;;;123.97;21.80;;;;;;;;;;5015865;28;20800;-68
2023/03/10 06:24:34;;;;;;;74.20;18.10;;;;;;;;;;5018235;28;20425;-68
2023/03/10 06:27:00;;;;;;;69.53;16.77;;;;;;;;;;5016291;28;20289;-68
2023/03/10 06:29:26;;;;;;;58.83;17.13;;;;;;;;;;5008537;28;20062;-68
2023/03/10 06:31:52;;;;;;;78.73;17.63;;;;;;;;;;5015330;28;20289;-68
2023/03/10 06:34:18;;;;;;;55.47;16.43;;;;;;;;;;5011247;28;20317;-68
2023/03/10 06:36:44;;;;;;;59.77;17.13;;;;;;;;;;5079447;28;20796;-68
2023/03/10 06:39:10;;;;;;;44.00;15.73;;;;;;;;;;5013411;28;20338;-68
2023/03/10 06:41:36;;;;;;;41.43;14.77;;;;;;;;;;5015956;28;20686;-68
2023/03/10 06:44:02;;;;;;;93.03;19.17;;;;;;;;;;5010013;28;20288;-68
2023/03/10 06:46:29;;;;;;;62.93;17.33;;;;;;;;;;5010650;28;20277;-69
2023/03/10 06:48:55;;;;;;;42.63;14.77;;;;;;;;;;5014060;28;20285;-68
2023/03/10 06:51:21;;;;;;;77.03;18.10;;;;;;;;;;5015929;28;20291;-68
2023/03/10 06:53:51;;;;;;;126.80;21.03;;;;;;;;;;5013714;28;20285;-68
2023/03/10 06:56:19;;;;;;;47.27;15.17;;;;;;;;;;5013390;28;20360;-69
2023/03/10 06:58:45;;;;;;;37.87;14.53;;;;;;;;;;5017520;28;20310;-69
2023/03/10 07:01:22;;;;;;;34.37;13.97;;;;;;;;;;5012747;28;20287;-69
2023/03/10 07:03:48;;;;;;;161.80;23.23;;;;;;;;;;5011604;28;20333;-70
2023/03/10 07:06:14;;;;;;;51.87;16.77;;;;;;;;;;5008776;28;20289;-70
2023/03/10 07:08:40;;;;;;;36.97;14.40;;;;;;;;;;5013806;28;20285;-70
2023/03/10 07:11:07;;;;;;;54.87;16.73;;;;;;;;;;5014108;28;20056;-70
2023/03/10 07:13:33;;;;;;;125.70;21.23;;;;;;;;;;5004917;28;20410;-70
2023/03/10 07:15:59;;;;;;;38.33;14.43;;;;;;;;;;5004448;28;20081;-70
2023/03/10 07:18:28;;;;;;;41.17;14.93;;;;;;;;;;5073279;28;20339;-70
2023/03/10 07:20:55;;;;;;;61.03;17.17;;;;;;;;;;5064239;28;20039;-70
2023/03/10 07:23:21;;;;;;;70.67;17.00;;;;;;;;;;5011125;28;20138;-71
2023/03/10 07:25:50;;;;;;;67.93;20.13;;;;;;;;;;5013315;28;20288;-71
2023/03/10 07:28:16;;;;;;;48.67;16.40;;;;;;;;;;5015546;28;20329;-71
2023/03/10 07:30:43;;;;;;;41.07;15.87;;;;;;;;;;5015984;28;20297;-71
2023/03/10 07:33:09;;;;;;;210.73;27.97;;;;;;;;;;5013218;28;20048;-71
2023/03/10 07:35:35;;;;;;;53.17;18.13;;;;;;;;;;5012603;28;20668;-71
2023/03/10 07:38:01;;;;;;;60.60;20.33;;;;;;;;;;5012589;28;20303;-71
2023/03/10 07:40:28;;;;;;;78.43;22.70;;;;;;;;;;5021191;28;20053;-71
2023/03/10 07:42:54;;;;;;;66.57;21.43;;;;;;;;;;5015960;28;20709;-71
2023/03/10 07:45:20;;;;;;;51.93;20.60;;;;;;;;;;5015048;28;20042;-72
2023/03/10 07:47:46;;;;;;;71.33;23.57;;;;;;;;;;5011739;28;20811;-71
2023/03/10 07:50:12;;;;;;;59.50;20.53;;;;;;;;;;5010574;28;20693;-71
2023/03/10 07:52:39;;;;;;;53.70;20.43;;;;;;;;;;5083081;28;20855;-71
2023/03/10 07:55:05;;;;;;;63.57;22.00;;;;;;;;;;5018627;28;20802;-72
2023/03/10 07:57:31;;;;;;;55.70;20.47;;;;;;;;;;5015917;28;20297;-71
2023/03/10 07:59:57;;;;;;;99.60;25.20;;;;;;;;;;5025373;28;20303;-71
2023/03/10 08:02:23;;;;;;;64.30;22.37;;;;;;;;;;5009889;28;20297;-71
2023/03/10 08:04:49;;;;;;;60.33;22.13;;;;;;;;;;5011117;28;20316;-71
2023/03/10 08:07:15;;;;;;;67.40;23.57;;;;;;;;;;5012650;28;20049;-71
2023/03/10 08:09:41;;;;;;;59.43;22.43;;;;;;;;;;5025228;28;20057;-71
2023/03/10 08:12:08;;;;;;;60.03;22.27;;;;;;;;;;5025622;28;20505;-71
2023/03/10 08:14:34;;;;;;;53.20;21.80;;;;;;;;;;5019154;28;20050;-72
2023/03/10 08:17:00;;;;;;;62.63;23.93;;;;;;;;;;5012438;28;20064;-72
2023/03/10 08:19:26;;;;;;;65.43;24.03;;;;;;;;;;5077458;28;20421;-73
2023/03/10 08:21:56;;;;;;;60.10;24.07;;;;;;;;;;5010637;28;20057;-72
2023/03/10 08:24:23;;;;;;;68.07;24.77;;;;;;;;;;5009249;28;20045;-71
2023/03/10 08:26:49;;;;;;;51.50;20.87;;;;;;;;;;5014243;28;20048;-72
2023/03/10 08:29:15;;;;;;;56.27;21.27;;;;;;;;;;5014388;28;20090;-72
2023/03/10 08:31:42;;;;;;;58.40;22.10;;;;;;;;;;5083837;28;20106;-72
2023/03/10 08:34:08;;;;;;;52.83;21.97;;;;;;;;;;5083688;28;20053;-72
2023/03/10 08:36:34;;;;;;;50.87;21.10;;;;;;;;;;5013447;28;20124;-71
2023/03/10 08:39:01;;;;;;;62.53;21.97;;;;;;;;;;5017890;28;20129;-71
2023/03/10 08:41:31;;;;;;;60.23;23.40;;;;;;;;;;5015127;28;20102;-71
2023/03/10 08:43:58;;;;;;;60.10;21.57;;;;;;;;;;5069241;28;20053;-71
2023/03/10 08:46:25;;;;;;;57.33;21.27;;;;;;;;;;5013487;28;20100;-71
2023/03/10 08:48:52;;;;;;;74.20;24.20;;;;;;;;;;5083345;28;20148;-71
2023/03/10 08:51:19;;;;;;;53.33;20.57;;;;;;;;;;5015485;28;20038;-71
2023/03/10 08:53:46;;;;;;;47.30;19.83;;;;;;;;;;5084748;28;20065;-71
2023/03/10 08:56:13;;;;;;;56.80;21.00;;;;;;;;;;5084002;28;20042;-71
2023/03/10 08:58:39;;;;;;;43.93;20.47;;;;;;;;;;5014689;28;20046;-71
2023/03/10 09:01:05;;;;;;;57.97;21.80;;;;;;;;;;5084432;28;20053;-72
2023/03/10 09:03:34;;;;;;;56.27;19.87;;;;;;;;;;5013159;28;20041;-72
2023/03/10 09:06:00;;;;;;;51.80;19.47;;;;;;;;;;5084785;28;20324;-71
2023/03/10 09:08:29;;;;;;;47.20;18.77;;;;;;;;;;5015588;28;20045;-72
2023/03/10 09:10:55;;;;;;;37.90;17.90;;;;;;;;;;5014454;28;20042;-71
2023/03/10 09:13:21;;;;;;;53.97;20.63;;;;;;;;;;5009292;28;20079;-71
2023/03/10 09:15:49;;;;;;;61.07;21.77;;;;;;;;;;5009331;28;20308;-71
2023/03/10 09:18:16;;;;;;;55.27;20.20;;;;;;;;;;5015991;28;20442;-71
2023/03/10 09:20:42;;;;;;;54.03;20.30;;;;;;;;;;5017381;28;20049;-71
2023/03/10 09:23:09;;;;;;;48.93;20.10;;;;;;;;;;5011025;28;20288;-72
2023/03/10 09:25:35;;;;;;;52.40;20.70;;;;;;;;;;5016361;28;20049;-72
2023/03/10 09:28:01;;;;;;;53.20;19.67;;;;;;;;;;5082395;28;20293;-71
2023/03/10 09:30:28;;;;;;;34.40;15.53;;;;;;;;;;5017430;28;20292;-72
2023/03/10 09:32:54;;;;;;;47.97;19.30;;;;;;;;;;5082986;28;20292;-72
2023/03/10 09:35:21;;;;;;;49.43;19.27;;;;;;;;;;5015829;28;20050;-73
2023/03/10 09:37:47;;;;;;;45.23;19.47;;;;;;;;;;5013220;28;20887;-72
2023/03/10 09:40:15;;;;;;;66.10;23.00;;;;;;;;;;5013181;28;20470;-73
2023/03/10 09:42:46;;;;;;;46.93;17.67;;;;;;;;;;5082721;28;20834;-72
2023/03/10 09:45:16;;;;;;;48.47;19.67;;;;;;;;;;5016746;28;20317;-71
2023/03/10 09:47:57;;;;;;;65.90;21.23;;;;;;;;;;5083483;28;20081;-72
2023/03/10 09:50:27;;;;;;;53.20;19.87;;;;;;;;;;5067049;28;20045;-71
2023/03/10 09:52:58;;;;;;;54.77;20.47;;;;;;;;;;5014512;28;20045;-71
2023/03/10 09:55:37;;;;;;;34.43;17.30;;;;;;;;;;5060906;28;20811;-71
2023/03/10 09:58:03;;;;;;;47.30;18.90;;;;;;;;;;5014551;28;20093;-71
2023/03/10 10:00:32;;;;;;;41.53;18.37;;;;;;;;;;5013546;28;20046;-72
2023/03/10 10:03:15;;;;;;;51.93;19.70;;;;;;;;;;5011814;28;20053;-72
2023/03/10 10:05:41;;;;;;;35.57;16.03;;;;;;;;;;5021971;28;20038;-71
2023/03/10 10:08:34;;;;;;;40.00;18.43;;;;;;;;;;5020008;28;20081;-72
2023/03/10 10:11:01;;;;;;;48.83;17.73;;;;;;;;;;5025093;28;20057;-72
2023/03/10 10:13:29;;;;;;;45.80;18.70;;;;;;;;;;5024068;28;20881;-71
2023/03/10 10:16:01;;;;;;;186.53;31.97;;;;;;;;;;5024248;28;20574;-71
2023/03/10 10:18:38;;;;;;;47.58;19.13;;;;;;;;;;5024078;28;20045;-71
2023/03/10 10:21:06;;;;;;;42.60;18.03;;;;;;;;;;5023966;28;20145;-71
2023/03/10 10:23:41;;;;;;;41.20;18.83;;;;;;;;;;5023616;28;20540;-72
2023/03/10 10:26:18;;;;;;;57.23;21.00;;;;;;;;;;5092123;28;20308;-72
2023/03/10 10:28:47;;;;;;;37.53;18.20;;;;;;;;;;5023536;28;20163;-71
2023/03/10 10:31:19;;;;;;;36.17;18.40;;;;;;;;;;5093098;28;20061;-71
2023/03/10 10:34:14;;;;;;;41.70;17.50;;;;;;;;;;5025210;28;20065;-71
2023/03/10 10:36:49;;;;;;;55.43;20.23;;;;;;;;;;5064372;28;21103;-71
2023/03/10 10:39:31;;;;;;;53.20;21.17;;;;;;;;;;5024888;28;20094;-71
2023/03/10 10:42:12;;;;;;;43.10;18.47;;;;;;;;;;5025170;28;20067;-71
2023/03/10 10:44:42;;;;;;;45.30;19.53;;;;;;;;;;5093565;28;20038;-70
2023/03/10 10:47:18;;;;;;;65.20;22.37;;;;;;;;;;5025619;28;20033;-69
2023/03/10 10:49:45;;;;;;;49.37;20.40;;;;;;;;;;5024704;28;20060;-69
2023/03/10 10:52:22;;;;;;;60.80;21.90;;;;;;;;;;5025386;28;20057;-69
2023/03/10 10:54:59;;;;;;;58.57;20.87;;;;;;;;;;5025022;28;20048;-69
2023/03/10 10:57:29;;;;;;;60.33;20.40;;;;;;;;;;5024928;28;20060;-69
2023/03/10 11:00:12;;;;;;;58.67;22.37;;;;;;;;;;5095293;28;20049;-68
2023/03/10 11:02:38;;;;;;;55.90;21.45;;;;;;;;;;5028725;28;20068;-69
2023/03/10 11:05:18;;;;;;;61.97;22.97;;;;;;;;;;5028445;28;20110;-68
2023/03/10 11:07:45;;;;;;;78.13;25.03;;;;;;;;;;5097164;28;20296;-68
2023/03/10 11:10:13;;;;;;;68.27;24.47;;;;;;;;;;5028557;28;20420;-69
2023/03/10 11:12:50;;;;;;;70.43;23.37;;;;;;;;;;5028255;28;20284;-68
2023/03/10 11:15:25;;;;;;;55.57;20.53;;;;;;;;;;5026923;28;20038;-68
2023/03/10 11:17:51;;;;;;;70.40;24.10;;;;;;;;;;5026485;28;20511;-68
2023/03/10 11:20:36;;;;;;;79.13;26.17;;;;;;;;;;5027834;28;20598;-68
2023/03/10 11:23:11;;;;;;;63.33;23.03;;;;;;;;;;5027810;28;20106;-67
2023/03/10 11:25:40;;;;;;;85.10;24.47;;;;;;;;;;5028055;28;20045;-67
2023/03/10 11:28:09;;;;;;;86.30;26.30;;;;;;;;;;5028243;28;20103;-67
2023/03/10 11:30:37;;;;;;;65.00;23.97;;;;;;;;;;5027720;28;20057;-67
2023/03/10 11:33:03;;;;;;;63.73;23.17;;;;;;;;;;5028126;28;20104;-67
2023/03/10 11:35:44;;;;;;;66.13;22.47;;;;;;;;;;5096467;28;20052;-67
2023/03/10 11:38:30;;;;;;;87.20;25.93;;;;;;;;;;5028200;28;20161;-67
2023/03/10 11:41:10;;;;;;;90.13;25.77;;;;;;;;;;5027837;28;20049;-68
2023/03/10 11:43:39;;;;;;;69.93;24.23;;;;;;;;;;5028300;28;20045;-67
2023/03/10 11:46:15;;;;;;;60.60;21.77;;;;;;;;;;5079188;28;20053;-67
2023/03/10 11:48:47;;;;;;;70.43;25.60;;;;;;;;;;5028130;28;20102;-67
2023/03/10 11:51:18;;;;;;;72.10;23.87;;;;;;;;;;5027720;28;20052;-67
2023/03/10 11:53:48;;;;;;;171.10;34.23;;;;;;;;;;5027407;28;20417;-67
2023/03/10 11:56:15;;;;;;;95.53;26.67;;;;;;;;;;5027492;28;20083;-67
2023/03/10 11:58:47;;;;;;;81.10;25.73;;;;;;;;;;5027549;28;20048;-67
2023/03/10 12:01:16;;;;;;;64.93;23.00;;;;;;;;;;5027826;28;20512;-66
2023/03/10 12:03:42;;;;;;;62.17;22.73;;;;;;;;;;5027451;28;20312;-67
2023/03/10 12:06:11;;;;;;;86.40;25.87;;;;;;;;;;5027332;28;20058;-67
2023/03/10 12:08:38;;;;;;;97.30;27.67;;;;;;;;;;5027294;28;20053;-66
2023/03/10 12:11:05;;;;;;;69.40;24.90;;;;;;;;;;5027360;28;20049;-67
2023/03/10 12:13:40;;;;;;;52.77;21.47;;;;;;;;;;5027118;28;20471;-67
2023/03/10 12:16:07;;;;;;;72.07;23.17;;;;;;;;;;5027485;28;20102;-67
2023/03/10 12:18:33;;;;;;;68.47;23.97;;;;;;;;;;5027038;28;20053;-66
2023/03/10 12:21:18;;;;;;;69.77;23.30;;;;;;;;;;5027296;28;20489;-67
2023/03/10 12:23:46;;;;;;;70.53;23.23;;;;;;;;;;5027145;28;20054;-67
2023/03/10 12:26:12;;;;;;;85.53;24.13;;;;;;;;;;5027337;28;20064;-66
2023/03/10 12:28:38;;;;;;;52.27;20.17;;;;;;;;;;5027101;28;20071;-67
2023/03/10 12:31:05;;;;;;;83.80;23.67;;;;;;;;;;5027347;28;20102;-66
2023/03/10 12:33:37;;;;;;;60.90;21.03;;;;;;;;;;5026862;28;20049;-66
2023/03/10 12:36:22;;;;;;;211.00;40.93;;;;;;;;;;5027238;28;20525;-67
2023/03/10 12:38:59;;;;;;;68.90;23.03;;;;;;;;;;5027079;28;20049;-67
2023/03/10 12:41:27;;;;;;;80.17;21.80;;;;;;;;;;5027477;28;20056;-67
2023/03/10 12:43:57;;;;;;;57.47;20.57;;;;;;;;;;5026965;28;20288;-67
2023/03/10 12:46:29;;;;;;;55.93;19.77;;;;;;;;;;5027017;28;20116;-67
2023/03/10 12:49:27;;;;;;;58.37;19.23;;;;;;;;;;5095067;28;20137;-67
2023/03/10 12:51:58;;;;;;;47.53;18.60;;;;;;;;;;5038898;28;20057;-67
2023/03/10 12:54:27;;;;;;;57.20;19.23;;;;;;;;;;5007205;28;20341;-67
2023/03/10 12:57:01;;;;;;;70.03;23.03;;;;;;;;;;5021005;28;20385;-67
2023/03/10 12:59:45;;;;;;;66.47;21.13;;;;;;;;;;5026707;28;20094;-67
2023/03/10 13:02:32;;;;;;;59.40;20.20;;;;;;;;;;5023330;28;20281;-67
2023/03/10 13:05:04;;;;;;;63.90;19.97;;;;;;;;;;5006943;28;20061;-66
2023/03/10 13:07:30;;;;;;;66.70;19.67;;;;;;;;;;5006906;28;20285;-67
2023/03/10 13:09:57;;;;;;;64.93;21.30;;;;;;;;;;5006653;28;20129;-67
2023/03/10 13:12:28;;;;;;;65.37;22.00;;;;;;;;;;5006969;28;20049;-67
2023/03/10 13:14:57;;;;;;;63.70;21.33;;;;;;;;;;5006675;28;20787;-67
2023/03/10 13:17:25;;;;;;;51.30;18.20;;;;;;;;;;5006663;28;20498;-67
2023/03/10 13:20:18;;;;;;;67.93;21.60;;;;;;;;;;5009998;28;20285;-67
2023/03/10 13:23:01;;;;;;;78.47;21.83;;;;;;;;;;5012906;28;20342;-67
2023/03/10 13:25:28;;;;;;;71.17;22.47;;;;;;;;;;5026339;28;20045;-67
2023/03/10 13:27:56;;;;;;;84.03;23.43;;;;;;;;;;5026591;28;20285;-67
2023/03/10 13:30:26;;;;;;;84.63;24.03;;;;;;;;;;5094078;28;20057;-67
2023/03/10 13:32:57;;;;;;;94.37;24.37;;;;;;;;;;5026226;28;20045;-67
2023/03/10 13:35:26;;;;;;;63.40;21.47;;;;;;;;;;5026018;28;20075;-67
2023/03/10 13:38:11;;;;;;;75.83;22.00;;;;;;;;;;5026213;28;20383;-67
2023/03/10 13:40:46;;;;;;;94.30;24.47;;;;;;;;;;5026091;28;20481;-67
2023/03/10 13:43:23;;;;;;;82.30;23.03;;;;;;;;;;5026118;28;20313;-68
2023/03/10 13:45:53;;;;;;;91.53;23.13;;;;;;;;;;5093582;28;20838;-67
2023/03/10 13:48:21;;;;;;;93.50;24.37;;;;;;;;;;5026151;28;20284;-67
2023/03/10 13:50:48;;;;;;;83.67;23.33;;;;;;;;;;5025877;28;20288;-67
2023/03/10 13:53:24;;;;;;;79.73;22.80;;;;;;;;;;5094319;28;20292;-67
2023/03/10 13:55:50;;;;;;;95.53;23.60;;;;;;;;;;5025637;28;20737;-67
2023/03/10 13:58:16;;;;;;;81.53;22.37;;;;;;;;;;5025913;28;20621;-67
2023/03/10 14:00:49;;;;;;;88.83;24.17;;;;;;;;;;5025729;28;20789;-66
2023/03/10 14:03:16;;;;;;;87.27;24.53;;;;;;;;;;5025486;28;20691;-67
2023/03/10 14:05:46;;;;;;;85.30;24.20;;;;;;;;;;5093951;28;20277;-66
2023/03/10 14:08:20;;;;;;;88.60;24.03;;;;;;;;;;5025902;28;20299;-67
2023/03/10 14:10:46;;;;;;;;;;;;;;;;;;5026333;28;20292;-67
2023/03/10 14:13:31;;;;;;;80.80;22.57;;;;;;;;;;5025774;28;19925;-67
2023/03/10 14:15:57;;;;;;;86.83;21.83;;;;;;;;;;5025570;28;20305;-67
2023/03/10 14:18:26;;;;;;;78.87;22.70;;;;;;;;;;5025606;28;20299;-66
2023/03/10 14:20:52;;;;;;;60.60;19.93;;;;;;;;;;5025694;28;20296;-67
2023/03/10 14:23:18;;;;;;;51.03;16.57;;;;;;;;;;5093536;28;20307;-67
2023/03/10 14:25:45;;;;;;;51.10;16.40;;;;;;;;;;5025601;28;20292;-67